sensor_id;sensor_type;location;lat;lon;timestamp;P1;durP1;ratioP1;P2;durP2;ratioP2
74849;SDS011;63397;47.480;19.238;2023-04-06T00:02:17;4.47;;;1.27;;
74849;SDS011;63397;47.480;19.238;2023-04-06T00:05:20;8.75;;;1.45;;
74849;SDS011;63397;47.480;19.238;2023-04-06T00:08:23;4.97;;;1.48;;
74849;SDS011;63397;47.480;19.238;2023-04-06T00:11:26;4.20;;;1.42;;
74849;SDS011;63397;47.480;19.238;2023-04-06T00:14:28;4.55;;;1.92;;
74849;SDS011;63397;47.480;19.238;2023-04-06T00:17:31;2.40;;;1.00;;
74849;SDS011;63397;47.480;19.238;2023-04-06T00:20:33;7.45;;;1.63;;
74849;SDS011;63397;47.480;19.238;2023-04-06T00:23:35;9.65;;;1.73;;
74849;SDS011;63397;47.480;19.238;2023-04-06T00:26:38;3.03;;;1.85;;
74849;SDS011;63397;47.480;19.238;2023-04-06T00:29:40;3.55;;;1.60;;
74849;SDS011;63397;47.480;19.238;2023-04-06T00:32:42;4.17;;;1.80;;
74849;SDS011;63397;47.480;19.238;2023-04-06T00:35:45;4.57;;;1.33;;
74849;SDS011;63397;47.480;19.238;2023-04-06T00:38:47;4.35;;;1.55;;
74849;SDS011;63397;47.480;19.238;2023-04-06T00:41:50;5.78;;;2.00;;
74849;SDS011;63397;47.480;19.238;2023-04-06T00:44:53;6.05;;;2.35;;
74849;SDS011;63397;47.480;19.238;2023-04-06T00:47:56;3.87;;;1.57;;
74849;SDS011;63397;47.480;19.238;2023-04-06T00:50:58;4.72;;;2.03;;
74849;SDS011;63397;47.480;19.238;2023-04-06T00:54:01;8.07;;;1.05;;
74849;SDS011;63397;47.480;19.238;2023-04-06T00:57:05;4.85;;;1.73;;
74849;SDS011;63397;47.480;19.238;2023-04-06T01:00:08;3.85;;;1.35;;
74849;SDS011;63397;47.480;19.238;2023-04-06T01:03:10;4.13;;;1.17;;
74849;SDS011;63397;47.480;19.238;2023-04-06T01:06:16;2.85;;;1.10;;
74849;SDS011;63397;47.480;19.238;2023-04-06T01:09:24;3.28;;;1.40;;
74849;SDS011;63397;47.480;19.238;2023-04-06T01:12:27;3.42;;;1.13;;
74849;SDS011;63397;47.480;19.238;2023-04-06T01:15:30;7.28;;;2.42;;
74849;SDS011;63397;47.480;19.238;2023-04-06T01:18:34;4.47;;;1.37;;
74849;SDS011;63397;47.480;19.238;2023-04-06T01:21:59;2.45;;;0.75;;
74849;SDS011;63397;47.480;19.238;2023-04-06T01:25:18;1.27;;;0.70;;
74849;SDS011;63397;47.480;19.238;2023-04-06T01:28:34;1.92;;;0.57;;
74849;SDS011;63397;47.480;19.238;2023-04-06T01:31:42;4.28;;;1.08;;
74849;SDS011;63397;47.480;19.238;2023-04-06T01:34:44;1.53;;;0.70;;
74849;SDS011;63397;47.480;19.238;2023-04-06T01:37:47;4.82;;;1.35;;
74849;SDS011;63397;47.480;19.238;2023-04-06T01:40:58;4.18;;;1.20;;
74849;SDS011;63397;47.480;19.238;2023-04-06T01:44:05;5.68;;;1.15;;
74849;SDS011;63397;47.480;19.238;2023-04-06T01:47:08;5.15;;;1.73;;
74849;SDS011;63397;47.480;19.238;2023-04-06T01:50:10;2.87;;;1.13;;
74849;SDS011;63397;47.480;19.238;2023-04-06T01:53:18;9.20;;;1.80;;
74849;SDS011;63397;47.480;19.238;2023-04-06T01:56:21;4.18;;;1.38;;
74849;SDS011;63397;47.480;19.238;2023-04-06T01:59:44;2.85;;;1.05;;
74849;SDS011;63397;47.480;19.238;2023-04-06T02:02:56;3.45;;;1.10;;
74849;SDS011;63397;47.480;19.238;2023-04-06T02:06:01;2.03;;;0.90;;
74849;SDS011;63397;47.480;19.238;2023-04-06T02:09:08;5.10;;;1.67;;
74849;SDS011;63397;47.480;19.238;2023-04-06T02:12:11;2.00;;;1.05;;
74849;SDS011;63397;47.480;19.238;2023-04-06T02:15:14;2.80;;;1.27;;
74849;SDS011;63397;47.480;19.238;2023-04-06T02:18:17;3.00;;;1.95;;
74849;SDS011;63397;47.480;19.238;2023-04-06T02:21:20;3.27;;;1.43;;
74849;SDS011;63397;47.480;19.238;2023-04-06T02:24:22;6.60;;;2.25;;
74849;SDS011;63397;47.480;19.238;2023-04-06T02:27:24;2.28;;;1.80;;
74849;SDS011;63397;47.480;19.238;2023-04-06T02:30:27;6.10;;;1.33;;
74849;SDS011;63397;47.480;19.238;2023-04-06T02:33:31;5.40;;;1.70;;
74849;SDS011;63397;47.480;19.238;2023-04-06T02:36:34;6.73;;;2.03;;
74849;SDS011;63397;47.480;19.238;2023-04-06T02:39:36;5.35;;;1.75;;
74849;SDS011;63397;47.480;19.238;2023-04-06T02:42:42;7.07;;;2.05;;
74849;SDS011;63397;47.480;19.238;2023-04-06T02:45:45;4.10;;;1.05;;
74849;SDS011;63397;47.480;19.238;2023-04-06T02:48:48;6.03;;;2.08;;
74849;SDS011;63397;47.480;19.238;2023-04-06T02:51:50;3.13;;;1.40;;
74849;SDS011;63397;47.480;19.238;2023-04-06T02:54:58;3.72;;;1.55;;
74849;SDS011;63397;47.480;19.238;2023-04-06T02:58:03;3.88;;;1.67;;
74849;SDS011;63397;47.480;19.238;2023-04-06T03:01:15;3.15;;;1.40;;
74849;SDS011;63397;47.480;19.238;2023-04-06T03:04:18;4.15;;;1.65;;
74849;SDS011;63397;47.480;19.238;2023-04-06T03:07:21;4.80;;;1.80;;
74849;SDS011;63397;47.480;19.238;2023-04-06T03:10:24;7.15;;;1.83;;
74849;SDS011;63397;47.480;19.238;2023-04-06T03:13:27;6.28;;;2.53;;
74849;SDS011;63397;47.480;19.238;2023-04-06T03:16:32;4.35;;;1.13;;
74849;SDS011;63397;47.480;19.238;2023-04-06T03:19:36;2.90;;;1.13;;
74849;SDS011;63397;47.480;19.238;2023-04-06T03:22:39;4.37;;;1.83;;
74849;SDS011;63397;47.480;19.238;2023-04-06T03:25:43;2.55;;;1.20;;
74849;SDS011;63397;47.480;19.238;2023-04-06T03:28:50;6.55;;;1.67;;
74849;SDS011;63397;47.480;19.238;2023-04-06T03:31:56;1.92;;;1.10;;
74849;SDS011;63397;47.480;19.238;2023-04-06T03:35:12;2.85;;;1.52;;
74849;SDS011;63397;47.480;19.238;2023-04-06T03:38:14;3.90;;;1.70;;
74849;SDS011;63397;47.480;19.238;2023-04-06T03:41:16;7.90;;;2.42;;
74849;SDS011;63397;47.480;19.238;2023-04-06T03:44:27;4.85;;;2.08;;
74849;SDS011;63397;47.480;19.238;2023-04-06T03:47:29;5.20;;;0.88;;
74849;SDS011;63397;47.480;19.238;2023-04-06T03:50:36;3.78;;;1.70;;
74849;SDS011;63397;47.480;19.238;2023-04-06T03:53:40;5.07;;;1.63;;
74849;SDS011;63397;47.480;19.238;2023-04-06T03:56:42;2.90;;;1.35;;
74849;SDS011;63397;47.480;19.238;2023-04-06T03:59:44;2.75;;;1.45;;
74849;SDS011;63397;47.480;19.238;2023-04-06T04:02:47;3.85;;;1.88;;
74849;SDS011;63397;47.480;19.238;2023-04-06T04:05:49;4.70;;;1.00;;
74849;SDS011;63397;47.480;19.238;2023-04-06T04:08:53;7.07;;;1.83;;
74849;SDS011;63397;47.480;19.238;2023-04-06T04:11:55;4.35;;;1.80;;
74849;SDS011;63397;47.480;19.238;2023-04-06T04:14:58;3.53;;;1.52;;
74849;SDS011;63397;47.480;19.238;2023-04-06T04:18:00;3.50;;;1.23;;
74849;SDS011;63397;47.480;19.238;2023-04-06T04:21:03;2.45;;;1.23;;
74849;SDS011;63397;47.480;19.238;2023-04-06T04:24:05;4.23;;;2.23;;
74849;SDS011;63397;47.480;19.238;2023-04-06T04:27:10;4.55;;;1.55;;
74849;SDS011;63397;47.480;19.238;2023-04-06T04:30:14;4.88;;;1.58;;
74849;SDS011;63397;47.480;19.238;2023-04-06T04:33:17;4.53;;;2.08;;
74849;SDS011;63397;47.480;19.238;2023-04-06T04:36:20;5.53;;;1.90;;
74849;SDS011;63397;47.480;19.238;2023-04-06T04:39:22;3.50;;;1.80;;
74849;SDS011;63397;47.480;19.238;2023-04-06T04:42:32;7.03;;;2.45;;
74849;SDS011;63397;47.480;19.238;2023-04-06T04:45:35;3.28;;;1.67;;
74849;SDS011;63397;47.480;19.238;2023-04-06T04:48:53;6.55;;;1.88;;
74849;SDS011;63397;47.480;19.238;2023-04-06T04:51:56;5.07;;;2.20;;
74849;SDS011;63397;47.480;19.238;2023-04-06T04:55:06;3.43;;;2.07;;
74849;SDS011;63397;47.480;19.238;2023-04-06T04:58:09;6.05;;;2.45;;
74849;SDS011;63397;47.480;19.238;2023-04-06T05:01:23;4.35;;;1.73;;
74849;SDS011;63397;47.480;19.238;2023-04-06T05:04:26;6.47;;;2.38;;
74849;SDS011;63397;47.480;19.238;2023-04-06T05:07:31;9.85;;;3.17;;
74849;SDS011;63397;47.480;19.238;2023-04-06T05:10:35;9.93;;;3.23;;
74849;SDS011;63397;47.480;19.238;2023-04-06T05:13:38;9.38;;;3.65;;
74849;SDS011;63397;47.480;19.238;2023-04-06T05:16:50;6.97;;;3.58;;
74849;SDS011;63397;47.480;19.238;2023-04-06T05:19:54;11.00;;;3.58;;
74849;SDS011;63397;47.480;19.238;2023-04-06T05:22:59;9.18;;;3.90;;
74849;SDS011;63397;47.480;19.238;2023-04-06T05:26:02;11.37;;;3.70;;
74849;SDS011;63397;47.480;19.238;2023-04-06T05:29:05;7.35;;;3.50;;
74849;SDS011;63397;47.480;19.238;2023-04-06T05:32:10;5.93;;;2.58;;
74849;SDS011;63397;47.480;19.238;2023-04-06T05:35:14;8.73;;;2.90;;
74849;SDS011;63397;47.480;19.238;2023-04-06T05:38:20;6.07;;;2.72;;
74849;SDS011;63397;47.480;19.238;2023-04-06T05:41:23;8.17;;;4.27;;
74849;SDS011;63397;47.480;19.238;2023-04-06T05:44:26;7.60;;;2.78;;
74849;SDS011;63397;47.480;19.238;2023-04-06T05:47:37;9.23;;;4.30;;
74849;SDS011;63397;47.480;19.238;2023-04-06T05:50:52;6.35;;;3.05;;
74849;SDS011;63397;47.480;19.238;2023-04-06T05:54:01;11.52;;;4.75;;
74849;SDS011;63397;47.480;19.238;2023-04-06T05:57:04;13.23;;;5.30;;
74849;SDS011;63397;47.480;19.238;2023-04-06T06:00:06;13.07;;;4.38;;
74849;SDS011;63397;47.480;19.238;2023-04-06T06:03:20;6.22;;;3.58;;
74849;SDS011;63397;47.480;19.238;2023-04-06T06:06:28;7.88;;;3.45;;
74849;SDS011;63397;47.480;19.238;2023-04-06T06:09:47;7.07;;;2.97;;
74849;SDS011;63397;47.480;19.238;2023-04-06T06:12:55;8.43;;;3.70;;
74849;SDS011;63397;47.480;19.238;2023-04-06T06:15:58;8.23;;;3.60;;
74849;SDS011;63397;47.480;19.238;2023-04-06T06:19:01;9.57;;;4.07;;
74849;SDS011;63397;47.480;19.238;2023-04-06T06:22:05;10.07;;;3.88;;
74849;SDS011;63397;47.480;19.238;2023-04-06T06:25:10;9.85;;;4.70;;
74849;SDS011;63397;47.480;19.238;2023-04-06T06:28:13;14.03;;;4.30;;
74849;SDS011;63397;47.480;19.238;2023-04-06T06:31:15;12.38;;;4.15;;
74849;SDS011;63397;47.480;19.238;2023-04-06T06:34:18;9.85;;;4.35;;
74849;SDS011;63397;47.480;19.238;2023-04-06T06:37:21;10.38;;;4.15;;
74849;SDS011;63397;47.480;19.238;2023-04-06T06:40:24;9.23;;;3.50;;
74849;SDS011;63397;47.480;19.238;2023-04-06T06:43:29;7.40;;;4.03;;
74849;SDS011;63397;47.480;19.238;2023-04-06T06:46:37;9.00;;;3.40;;
74849;SDS011;63397;47.480;19.238;2023-04-06T06:49:40;7.65;;;3.45;;
74849;SDS011;63397;47.480;19.238;2023-04-06T06:52:43;12.68;;;4.60;;
74849;SDS011;63397;47.480;19.238;2023-04-06T06:55:45;7.45;;;3.42;;
74849;SDS011;63397;47.480;19.238;2023-04-06T06:58:48;9.13;;;3.10;;
74849;SDS011;63397;47.480;19.238;2023-04-06T07:01:50;6.20;;;3.28;;
74849;SDS011;63397;47.480;19.238;2023-04-06T07:04:54;10.52;;;3.65;;
74849;SDS011;63397;47.480;19.238;2023-04-06T07:07:56;11.82;;;3.70;;
74849;SDS011;63397;47.480;19.238;2023-04-06T07:11:00;7.45;;;2.90;;
74849;SDS011;63397;47.480;19.238;2023-04-06T07:14:02;4.70;;;2.37;;
74849;SDS011;63397;47.480;19.238;2023-04-06T07:17:05;6.80;;;3.45;;
74849;SDS011;63397;47.480;19.238;2023-04-06T07:20:07;7.63;;;3.00;;
74849;SDS011;63397;47.480;19.238;2023-04-06T07:23:10;8.57;;;2.90;;
74849;SDS011;63397;47.480;19.238;2023-04-06T07:26:13;7.47;;;3.60;;
74849;SDS011;63397;47.480;19.238;2023-04-06T07:29:16;8.67;;;3.40;;
74849;SDS011;63397;47.480;19.238;2023-04-06T07:32:18;9.18;;;4.07;;
74849;SDS011;63397;47.480;19.238;2023-04-06T07:35:21;10.95;;;4.93;;
74849;SDS011;63397;47.480;19.238;2023-04-06T07:38:24;8.35;;;3.65;;
74849;SDS011;63397;47.480;19.238;2023-04-06T07:41:27;9.07;;;3.83;;
74849;SDS011;63397;47.480;19.238;2023-04-06T07:44:30;8.53;;;3.57;;
74849;SDS011;63397;47.480;19.238;2023-04-06T07:47:32;8.93;;;4.85;;
74849;SDS011;63397;47.480;19.238;2023-04-06T07:50:36;9.82;;;4.30;;
74849;SDS011;63397;47.480;19.238;2023-04-06T07:53:39;7.97;;;3.22;;
74849;SDS011;63397;47.480;19.238;2023-04-06T07:56:42;11.18;;;4.15;;
74849;SDS011;63397;47.480;19.238;2023-04-06T07:59:44;8.43;;;3.27;;
74849;SDS011;63397;47.480;19.238;2023-04-06T08:02:46;9.90;;;4.30;;
74849;SDS011;63397;47.480;19.238;2023-04-06T08:05:49;8.25;;;3.38;;
74849;SDS011;63397;47.480;19.238;2023-04-06T08:08:51;10.75;;;3.95;;
74849;SDS011;63397;47.480;19.238;2023-04-06T08:11:53;7.18;;;3.47;;
74849;SDS011;63397;47.480;19.238;2023-04-06T08:14:55;8.87;;;3.40;;
74849;SDS011;63397;47.480;19.238;2023-04-06T08:17:58;5.35;;;2.60;;
74849;SDS011;63397;47.480;19.238;2023-04-06T08:21:01;6.20;;;2.80;;
74849;SDS011;63397;47.480;19.238;2023-04-06T08:24:03;6.00;;;2.67;;
74849;SDS011;63397;47.480;19.238;2023-04-06T08:27:06;5.85;;;2.92;;
74849;SDS011;63397;47.480;19.238;2023-04-06T08:30:09;8.53;;;3.73;;
74849;SDS011;63397;47.480;19.238;2023-04-06T08:33:11;9.07;;;4.38;;
74849;SDS011;63397;47.480;19.238;2023-04-06T08:36:14;8.27;;;3.00;;
74849;SDS011;63397;47.480;19.238;2023-04-06T08:39:16;6.65;;;3.17;;
74849;SDS011;63397;47.480;19.238;2023-04-06T08:42:20;6.15;;;2.83;;
74849;SDS011;63397;47.480;19.238;2023-04-06T08:45:22;4.80;;;2.37;;
74849;SDS011;63397;47.480;19.238;2023-04-06T08:48:25;7.30;;;2.50;;
74849;SDS011;63397;47.480;19.238;2023-04-06T08:51:28;6.25;;;2.78;;
74849;SDS011;63397;47.480;19.238;2023-04-06T08:54:30;5.82;;;2.50;;
74849;SDS011;63397;47.480;19.238;2023-04-06T08:57:32;5.38;;;2.42;;
74849;SDS011;63397;47.480;19.238;2023-04-06T09:00:37;5.07;;;2.60;;
74849;SDS011;63397;47.480;19.238;2023-04-06T09:03:40;5.38;;;2.10;;
74849;SDS011;63397;47.480;19.238;2023-04-06T09:06:43;8.80;;;3.70;;
74849;SDS011;63397;47.480;19.238;2023-04-06T09:09:45;11.43;;;2.33;;
74849;SDS011;63397;47.480;19.238;2023-04-06T09:12:49;6.30;;;2.60;;
74849;SDS011;63397;47.480;19.238;2023-04-06T09:15:59;5.70;;;2.43;;
74849;SDS011;63397;47.480;19.238;2023-04-06T09:19:03;5.60;;;2.20;;
74849;SDS011;63397;47.480;19.238;2023-04-06T09:22:06;8.27;;;2.72;;
74849;SDS011;63397;47.480;19.238;2023-04-06T09:25:17;6.18;;;2.33;;
74849;SDS011;63397;47.480;19.238;2023-04-06T09:28:20;6.22;;;2.40;;
74849;SDS011;63397;47.480;19.238;2023-04-06T09:31:26;7.60;;;2.63;;
74849;SDS011;63397;47.480;19.238;2023-04-06T09:34:29;6.10;;;2.42;;
74849;SDS011;63397;47.480;19.238;2023-04-06T09:37:31;10.20;;;3.80;;
74849;SDS011;63397;47.480;19.238;2023-04-06T09:40:33;7.68;;;2.72;;
74849;SDS011;63397;47.480;19.238;2023-04-06T09:43:35;6.75;;;2.60;;
74849;SDS011;63397;47.480;19.238;2023-04-06T09:46:38;5.97;;;2.97;;
74849;SDS011;63397;47.480;19.238;2023-04-06T09:49:59;6.85;;;2.63;;
74849;SDS011;63397;47.480;19.238;2023-04-06T09:53:02;7.53;;;3.25;;
74849;SDS011;63397;47.480;19.238;2023-04-06T09:56:05;4.82;;;2.40;;
74849;SDS011;63397;47.480;19.238;2023-04-06T09:59:11;10.10;;;3.15;;
74849;SDS011;63397;47.480;19.238;2023-04-06T10:02:23;8.43;;;3.40;;
74849;SDS011;63397;47.480;19.238;2023-04-06T10:05:33;6.65;;;2.97;;
74849;SDS011;63397;47.480;19.238;2023-04-06T10:08:39;7.65;;;3.03;;
74849;SDS011;63397;47.480;19.238;2023-04-06T10:11:43;4.60;;;2.10;;
74849;SDS011;63397;47.480;19.238;2023-04-06T10:14:45;8.07;;;2.67;;
74849;SDS011;63397;47.480;19.238;2023-04-06T10:17:48;10.60;;;3.10;;
74849;SDS011;63397;47.480;19.238;2023-04-06T10:20:54;6.15;;;2.45;;
74849;SDS011;63397;47.480;19.238;2023-04-06T10:23:59;10.02;;;3.42;;
74849;SDS011;63397;47.480;19.238;2023-04-06T10:27:01;6.97;;;3.42;;
74849;SDS011;63397;47.480;19.238;2023-04-06T10:30:05;7.88;;;3.08;;
74849;SDS011;63397;47.480;19.238;2023-04-06T10:33:17;8.20;;;3.07;;
74849;SDS011;63397;47.480;19.238;2023-04-06T10:36:23;7.68;;;3.30;;
74849;SDS011;63397;47.480;19.238;2023-04-06T10:39:27;7.35;;;2.90;;
74849;SDS011;63397;47.480;19.238;2023-04-06T10:42:36;7.47;;;2.55;;
74849;SDS011;63397;47.480;19.238;2023-04-06T10:45:39;5.10;;;2.80;;
74849;SDS011;63397;47.480;19.238;2023-04-06T10:48:43;5.30;;;2.63;;
74849;SDS011;63397;47.480;19.238;2023-04-06T10:51:50;7.25;;;2.90;;
74849;SDS011;63397;47.480;19.238;2023-04-06T10:54:53;6.70;;;2.80;;
74849;SDS011;63397;47.480;19.238;2023-04-06T10:57:56;10.60;;;4.32;;
74849;SDS011;63397;47.480;19.238;2023-04-06T11:00:59;6.20;;;2.63;;
74849;SDS011;63397;47.480;19.238;2023-04-06T11:04:02;5.73;;;2.60;;
74849;SDS011;63397;47.480;19.238;2023-04-06T11:07:05;8.20;;;3.53;;
74849;SDS011;63397;47.480;19.238;2023-04-06T11:10:07;4.85;;;2.30;;
74849;SDS011;63397;47.480;19.238;2023-04-06T11:13:17;5.47;;;2.35;;
74849;SDS011;63397;47.480;19.238;2023-04-06T11:16:23;6.85;;;2.67;;
74849;SDS011;63397;47.480;19.238;2023-04-06T11:19:26;8.17;;;2.40;;
74849;SDS011;63397;47.480;19.238;2023-04-06T11:22:28;5.68;;;2.55;;
74849;SDS011;63397;47.480;19.238;2023-04-06T11:25:30;9.02;;;3.38;;
74849;SDS011;63397;47.480;19.238;2023-04-06T11:28:34;6.95;;;2.90;;
74849;SDS011;63397;47.480;19.238;2023-04-06T11:31:37;5.60;;;2.40;;
74849;SDS011;63397;47.480;19.238;2023-04-06T11:34:40;8.90;;;2.87;;
74849;SDS011;63397;47.480;19.238;2023-04-06T11:37:43;8.52;;;3.20;;
74849;SDS011;63397;47.480;19.238;2023-04-06T11:40:45;5.28;;;2.50;;
74849;SDS011;63397;47.480;19.238;2023-04-06T11:43:47;6.25;;;2.67;;
74849;SDS011;63397;47.480;19.238;2023-04-06T11:46:53;5.70;;;2.83;;
74849;SDS011;63397;47.480;19.238;2023-04-06T11:49:55;7.07;;;2.90;;
74849;SDS011;63397;47.480;19.238;2023-04-06T11:52:58;6.47;;;2.60;;
74849;SDS011;63397;47.480;19.238;2023-04-06T11:56:05;6.72;;;2.38;;
74849;SDS011;63397;47.480;19.238;2023-04-06T11:59:07;5.60;;;2.28;;
74849;SDS011;63397;47.480;19.238;2023-04-06T12:02:09;6.15;;;2.55;;
74849;SDS011;63397;47.480;19.238;2023-04-06T12:05:12;7.03;;;2.47;;
74849;SDS011;63397;47.480;19.238;2023-04-06T12:08:14;4.00;;;1.67;;
74849;SDS011;63397;47.480;19.238;2023-04-06T12:11:17;5.65;;;2.38;;
74849;SDS011;63397;47.480;19.238;2023-04-06T12:14:20;7.15;;;2.47;;
74849;SDS011;63397;47.480;19.238;2023-04-06T12:17:23;4.03;;;2.10;;
74849;SDS011;63397;47.480;19.238;2023-04-06T12:20:25;10.63;;;3.33;;
74849;SDS011;63397;47.480;19.238;2023-04-06T12:23:28;5.72;;;2.08;;
74849;SDS011;63397;47.480;19.238;2023-04-06T12:26:30;4.10;;;2.20;;
74849;SDS011;63397;47.480;19.238;2023-04-06T12:29:33;7.03;;;2.20;;
74849;SDS011;63397;47.480;19.238;2023-04-06T12:32:35;4.75;;;2.10;;
74849;SDS011;63397;47.480;19.238;2023-04-06T12:35:38;7.50;;;2.47;;
74849;SDS011;63397;47.480;19.238;2023-04-06T12:38:41;7.22;;;2.65;;
74849;SDS011;63397;47.480;19.238;2023-04-06T12:41:43;9.30;;;3.28;;
74849;SDS011;63397;47.480;19.238;2023-04-06T12:44:45;5.13;;;2.55;;
74849;SDS011;63397;47.480;19.238;2023-04-06T12:47:49;6.60;;;2.50;;
74849;SDS011;63397;47.480;19.238;2023-04-06T12:50:59;7.53;;;2.20;;
74849;SDS011;63397;47.480;19.238;2023-04-06T12:54:02;6.72;;;3.00;;
74849;SDS011;63397;47.480;19.238;2023-04-06T12:57:04;5.22;;;2.72;;
74849;SDS011;63397;47.480;19.238;2023-04-06T13:00:07;7.10;;;3.33;;
74849;SDS011;63397;47.480;19.238;2023-04-06T13:03:10;6.65;;;2.75;;
74849;SDS011;63397;47.480;19.238;2023-04-06T13:06:13;5.33;;;2.53;;
74849;SDS011;63397;47.480;19.238;2023-04-06T13:09:16;5.78;;;2.20;;
74849;SDS011;63397;47.480;19.238;2023-04-06T13:12:18;6.97;;;2.42;;
74849;SDS011;63397;47.480;19.238;2023-04-06T13:15:21;7.45;;;2.80;;
74849;SDS011;63397;47.480;19.238;2023-04-06T13:18:23;6.57;;;2.45;;
74849;SDS011;63397;47.480;19.238;2023-04-06T13:21:26;6.17;;;2.77;;
74849;SDS011;63397;47.480;19.238;2023-04-06T13:24:29;5.47;;;2.35;;
74849;SDS011;63397;47.480;19.238;2023-04-06T13:27:31;5.93;;;2.90;;
74849;SDS011;63397;47.480;19.238;2023-04-06T13:30:35;7.30;;;2.92;;
74849;SDS011;63397;47.480;19.238;2023-04-06T13:33:38;3.03;;;1.45;;
74849;SDS011;63397;47.480;19.238;2023-04-06T13:36:41;6.07;;;2.93;;
74849;SDS011;63397;47.480;19.238;2023-04-06T13:39:44;6.80;;;2.63;;
74849;SDS011;63397;47.480;19.238;2023-04-06T13:42:47;7.05;;;3.17;;
74849;SDS011;63397;47.480;19.238;2023-04-06T13:45:50;8.05;;;2.90;;
74849;SDS011;63397;47.480;19.238;2023-04-06T13:48:52;6.15;;;2.72;;
74849;SDS011;63397;47.480;19.238;2023-04-06T13:51:55;6.30;;;2.73;;
74849;SDS011;63397;47.480;19.238;2023-04-06T13:54:57;6.63;;;2.45;;
74849;SDS011;63397;47.480;19.238;2023-04-06T13:57:59;5.00;;;2.20;;
74849;SDS011;63397;47.480;19.238;2023-04-06T14:01:08;6.35;;;2.10;;
74849;SDS011;63397;47.480;19.238;2023-04-06T14:04:12;8.20;;;3.33;;
74849;SDS011;63397;47.480;19.238;2023-04-06T14:07:14;5.00;;;2.40;;
74849;SDS011;63397;47.480;19.238;2023-04-06T14:10:17;8.05;;;2.90;;
74849;SDS011;63397;47.480;19.238;2023-04-06T14:13:19;6.00;;;2.33;;
74849;SDS011;63397;47.480;19.238;2023-04-06T14:16:23;6.35;;;2.75;;
74849;SDS011;63397;47.480;19.238;2023-04-06T14:19:25;7.00;;;2.75;;
74849;SDS011;63397;47.480;19.238;2023-04-06T14:22:28;7.30;;;2.30;;
74849;SDS011;63397;47.480;19.238;2023-04-06T14:25:31;5.75;;;2.70;;
74849;SDS011;63397;47.480;19.238;2023-04-06T14:28:34;9.95;;;2.97;;
74849;SDS011;63397;47.480;19.238;2023-04-06T14:31:36;5.05;;;2.40;;
74849;SDS011;63397;47.480;19.238;2023-04-06T14:34:39;4.57;;;2.08;;
74849;SDS011;63397;47.480;19.238;2023-04-06T14:37:41;5.00;;;2.33;;
74849;SDS011;63397;47.480;19.238;2023-04-06T14:40:44;5.70;;;2.50;;
74849;SDS011;63397;47.480;19.238;2023-04-06T14:43:46;4.72;;;2.05;;
74849;SDS011;63397;47.480;19.238;2023-04-06T14:46:49;4.57;;;2.17;;
74849;SDS011;63397;47.480;19.238;2023-04-06T14:49:52;5.10;;;1.90;;
74849;SDS011;63397;47.480;19.238;2023-04-06T14:52:55;6.03;;;2.30;;
74849;SDS011;63397;47.480;19.238;2023-04-06T14:55:57;5.80;;;1.98;;
74849;SDS011;63397;47.480;19.238;2023-04-06T14:59:00;6.47;;;2.47;;
74849;SDS011;63397;47.480;19.238;2023-04-06T15:02:05;5.35;;;2.28;;
74849;SDS011;63397;47.480;19.238;2023-04-06T15:05:08;7.10;;;2.40;;
74849;SDS011;63397;47.480;19.238;2023-04-06T15:08:10;6.37;;;2.77;;
74849;SDS011;63397;47.480;19.238;2023-04-06T15:11:14;5.82;;;2.20;;
74849;SDS011;63397;47.480;19.238;2023-04-06T15:14:16;6.78;;;2.15;;
74849;SDS011;63397;47.480;19.238;2023-04-06T15:17:18;4.72;;;1.92;;
74849;SDS011;63397;47.480;19.238;2023-04-06T15:20:20;5.15;;;2.10;;
74849;SDS011;63397;47.480;19.238;2023-04-06T15:23:23;4.83;;;1.80;;
74849;SDS011;63397;47.480;19.238;2023-04-06T15:26:25;4.72;;;1.50;;
74849;SDS011;63397;47.480;19.238;2023-04-06T15:29:29;5.07;;;2.10;;
74849;SDS011;63397;47.480;19.238;2023-04-06T15:32:32;7.55;;;2.42;;
74849;SDS011;63397;47.480;19.238;2023-04-06T15:35:34;4.75;;;1.75;;
74849;SDS011;63397;47.480;19.238;2023-04-06T15:38:41;6.40;;;2.83;;
74849;SDS011;63397;47.480;19.238;2023-04-06T15:41:44;5.13;;;1.98;;
74849;SDS011;63397;47.480;19.238;2023-04-06T15:44:46;4.68;;;1.90;;
74849;SDS011;63397;47.480;19.238;2023-04-06T15:47:48;7.07;;;2.22;;
74849;SDS011;63397;47.480;19.238;2023-04-06T15:50:51;3.67;;;1.45;;
74849;SDS011;63397;47.480;19.238;2023-04-06T15:53:54;5.30;;;2.30;;
74849;SDS011;63397;47.480;19.238;2023-04-06T15:56:56;5.32;;;1.98;;
74849;SDS011;63397;47.480;19.238;2023-04-06T15:59:59;4.63;;;2.10;;
74849;SDS011;63397;47.480;19.238;2023-04-06T16:03:01;5.30;;;1.83;;
74849;SDS011;63397;47.480;19.238;2023-04-06T16:06:04;5.30;;;2.33;;
74849;SDS011;63397;47.480;19.238;2023-04-06T16:09:10;6.97;;;2.07;;
74849;SDS011;63397;47.480;19.238;2023-04-06T16:12:12;4.95;;;2.05;;
74849;SDS011;63397;47.480;19.238;2023-04-06T16:15:14;5.97;;;2.15;;
74849;SDS011;63397;47.480;19.238;2023-04-06T16:18:17;5.15;;;1.65;;
74849;SDS011;63397;47.480;19.238;2023-04-06T16:21:19;6.65;;;2.08;;
74849;SDS011;63397;47.480;19.238;2023-04-06T16:24:21;3.73;;;1.87;;
74849;SDS011;63397;47.480;19.238;2023-04-06T16:27:24;4.97;;;1.85;;
74849;SDS011;63397;47.480;19.238;2023-04-06T16:30:26;4.85;;;1.67;;
74849;SDS011;63397;47.480;19.238;2023-04-06T16:33:31;5.63;;;1.83;;
74849;SDS011;63397;47.480;19.238;2023-04-06T16:36:33;5.25;;;1.75;;
74849;SDS011;63397;47.480;19.238;2023-04-06T16:39:36;5.43;;;1.80;;
74849;SDS011;63397;47.480;19.238;2023-04-06T16:42:38;8.43;;;3.10;;
74849;SDS011;63397;47.480;19.238;2023-04-06T16:45:42;6.18;;;2.33;;
74849;SDS011;63397;47.480;19.238;2023-04-06T16:48:50;3.30;;;1.38;;
74849;SDS011;63397;47.480;19.238;2023-04-06T16:51:52;5.72;;;1.88;;
74849;SDS011;63397;47.480;19.238;2023-04-06T16:54:55;5.73;;;2.37;;
74849;SDS011;63397;47.480;19.238;2023-04-06T16:57:57;5.45;;;2.75;;
74849;SDS011;63397;47.480;19.238;2023-04-06T17:01:00;5.28;;;1.90;;
74849;SDS011;63397;47.480;19.238;2023-04-06T17:04:02;4.47;;;1.83;;
74849;SDS011;63397;47.480;19.238;2023-04-06T17:07:05;7.97;;;1.95;;
74849;SDS011;63397;47.480;19.238;2023-04-06T17:10:07;7.03;;;2.40;;
74849;SDS011;63397;47.480;19.238;2023-04-06T17:13:09;6.35;;;1.92;;
74849;SDS011;63397;47.480;19.238;2023-04-06T17:16:12;6.50;;;2.83;;
74849;SDS011;63397;47.480;19.238;2023-04-06T17:19:14;5.40;;;2.10;;
74849;SDS011;63397;47.480;19.238;2023-04-06T17:22:16;4.25;;;2.03;;
74849;SDS011;63397;47.480;19.238;2023-04-06T17:25:22;4.63;;;1.63;;
74849;SDS011;63397;47.480;19.238;2023-04-06T17:28:24;4.72;;;1.88;;
74849;SDS011;63397;47.480;19.238;2023-04-06T17:31:27;6.35;;;3.15;;
74849;SDS011;63397;47.480;19.238;2023-04-06T17:34:29;5.63;;;2.47;;
74849;SDS011;63397;47.480;19.238;2023-04-06T17:37:31;5.00;;;1.60;;
74849;SDS011;63397;47.480;19.238;2023-04-06T17:40:34;5.97;;;2.17;;
74849;SDS011;63397;47.480;19.238;2023-04-06T17:43:38;4.22;;;2.08;;
74849;SDS011;63397;47.480;19.238;2023-04-06T17:46:40;6.28;;;2.08;;
74849;SDS011;63397;47.480;19.238;2023-04-06T17:49:43;5.65;;;2.58;;
74849;SDS011;63397;47.480;19.238;2023-04-06T17:52:45;6.68;;;2.50;;
74849;SDS011;63397;47.480;19.238;2023-04-06T17:55:50;6.37;;;2.70;;
74849;SDS011;63397;47.480;19.238;2023-04-06T17:58:56;5.63;;;2.22;;
74849;SDS011;63397;47.480;19.238;2023-04-06T18:01:59;7.07;;;3.08;;
74849;SDS011;63397;47.480;19.238;2023-04-06T18:05:02;9.40;;;2.63;;
74849;SDS011;63397;47.480;19.238;2023-04-06T18:08:05;6.85;;;2.67;;
74849;SDS011;63397;47.480;19.238;2023-04-06T18:11:17;6.77;;;2.50;;